Time;durP1;ratioP1;P1;durP2;ratioP2;P2;SDS_P1;SDS_P2;PMS_P1;PMS_P2;Temp;Humidity;BMP_temperature;BMP_pressure;BME280_temperature;BME280_humidity;BME280_pressure;Samples;Min_cycle;Max_cycle;Signal;HPM_P1;HPM_P2
2022/07/31 00:00:32;;;;;;;5.47;4.78;;;18.20;79.30;;;;;;5109219;28;20492;-78
2022/07/31 00:02:57;;;;;;;5.43;4.70;;;18.20;79.20;;;;;;5075515;28;20108;-77
2022/07/31 00:05:24;;;;;;;7.20;4.55;;;18.20;79.20;;;;;;5109069;28;20040;-76
2022/07/31 00:07:51;;;;;;;7.03;5.15;;;18.20;79.10;;;;;;5075553;28;20123;-77
2022/07/31 00:10:17;;;;;;;9.32;5.10;;;18.20;79.20;;;;;;5109245;28;20439;-75
2022/07/31 00:12:43;;;;;;;9.95;6.45;;;18.20;79.20;;;;;;5109018;28;20044;-77
2022/07/31 00:15:09;;;;;;;7.82;4.97;;;18.20;79.40;;;;;;5108952;28;20123;-76
2022/07/31 00:17:37;;;;;;;8.38;5.20;;;18.20;79.40;;;;;;5108990;28;20036;-78
2022/07/31 00:20:04;;;;;;;9.07;4.78;;;18.20;79.20;;;;;;5075039;28;20472;-77
2022/07/31 00:22:29;;;;;;;6.55;4.50;;;18.20;79.30;;;;;;5109139;28;20044;-75
2022/07/31 00:24:56;;;;;;;7.50;5.13;;;18.20;79.20;;;;;;5075342;28;20553;-79
2022/07/31 00:27:22;;;;;;;9.00;4.90;;;18.20;79.10;;;;;;5108882;28;20074;-77
2022/07/31 00:29:48;;;;;;;6.78;4.88;;;18.20;79.20;;;;;;5108898;28;20044;-77
2022/07/31 00:32:14;;;;;;;6.32;4.47;;;18.20;79.30;;;;;;5108613;28;20102;-78
2022/07/31 00:34:41;;;;;;;7.20;4.40;;;18.20;79.40;;;;;;5075077;28;20075;-74
2022/07/31 00:37:07;;;;;;;6.30;4.53;;;18.30;79.30;;;;;;5109084;28;20404;-74
2022/07/31 00:39:33;;;;;;;6.13;4.60;;;18.30;79.30;;;;;;5108709;28;20080;-75
2022/07/31 00:41:58;;;;;;;7.78;4.78;;;18.30;79.30;;;;;;5108783;28;20075;-76
2022/07/31 00:44:24;;;;;;;9.48;4.85;;;18.30;79.10;;;;;;5109584;28;20043;-74
2022/07/31 00:46:50;;;;;;;5.65;4.32;;;18.30;79.20;;;;;;5081801;28;20059;-77
2022/07/31 00:49:16;;;;;;;8.48;5.28;;;18.40;78.90;;;;;;5115766;28;20044;-78
2022/07/31 00:51:42;;;;;;;5.38;4.10;;;18.40;78.90;;;;;;5115483;28;20036;-76
2022/07/31 00:54:09;;;;;;;7.97;4.90;;;18.40;78.80;;;;;;5081675;28;20452;-76
2022/07/31 00:56:35;;;;;;;5.28;4.78;;;18.40;79.00;;;;;;5098224;28;20051;-77
2022/07/31 00:59:01;;;;;;;6.45;5.38;;;18.40;78.90;;;;;;5098167;28;20042;-76
2022/07/31 01:01:28;;;;;;;6.43;4.65;;;18.40;79.10;;;;;;5081330;28;20047;-76
2022/07/31 01:03:53;;;;;;;6.75;5.30;;;18.40;79.20;;;;;;5115297;28;20093;-75
2022/07/31 01:06:19;;;;;;;7.93;5.22;;;18.30;79.70;;;;;;5115249;28;20071;-76
2022/07/31 01:08:45;;;;;;;6.43;4.90;;;18.30;79.70;;;;;;5081679;28;20056;-77
2022/07/31 01:11:23;;;;;;;7.47;5.53;;;18.30;79.80;;;;;;5115253;28;20555;-77
2022/07/31 01:13:56;;;;;;;5.93;5.00;;;18.30;79.90;;;;;;5115531;28;20047;-76
2022/07/31 01:16:26;;;;;;;5.70;5.13;;;18.20;79.90;;;;;;5115115;28;20036;-76
2022/07/31 01:18:55;;;;;;;7.50;5.70;;;18.30;80.00;;;;;;5115383;28;20040;-75
2022/07/31 01:21:30;;;;;;;8.13;5.93;;;18.20;80.10;;;;;;5115501;28;20032;-75
2022/07/31 01:24:18;;;;;;;7.28;5.82;;;18.20;80.20;;;;;;5081255;28;20093;-76
2022/07/31 01:27:04;;;;;;;6.82;6.18;;;18.20;80.10;;;;;;5115079;28;20071;-79
2022/07/31 01:29:46;;;;;;;7.95;6.07;;;18.20;80.20;;;;;;5115098;28;20055;-76
2022/07/31 01:32:34;;;;;;;8.00;5.95;;;18.20;80.30;;;;;;5097902;28;20056;-77
2022/07/31 01:35:03;;;;;;;7.30;5.88;;;18.20;80.50;;;;;;5081079;28;20449;-78
2022/07/31 01:37:49;;;;;;;7.90;6.28;;;18.20;80.40;;;;;;5115250;28;20097;-78
2022/07/31 01:40:19;;;;;;;10.00;6.10;;;18.20;80.50;;;;;;5114957;28;20507;-76
2022/07/31 01:42:55;;;;;;;7.45;5.75;;;18.10;80.70;;;;;;5115262;28;20044;-77
2022/07/31 01:45:23;;;;;;;6.15;5.60;;;18.10;80.40;;;;;;5114911;28;20048;-77
2022/07/31 01:47:50;;;;;;;7.15;6.13;;;18.00;80.40;;;;;;5115249;28;20094;-75
2022/07/31 01:50:17;;;;;;;8.18;5.80;;;18.00;80.50;;;;;;5114911;28;20048;-77
2022/07/31 01:52:43;;;;;;;7.60;6.20;;;18.00;80.70;;;;;;5114859;28;20526;-75
2022/07/31 01:55:12;;;;;;;6.55;5.20;;;18.00;80.50;;;;;;5114794;28;20119;-76
2022/07/31 01:57:40;;;;;;;7.78;6.00;;;18.00;80.30;;;;;;5077106;28;20048;-77
2022/07/31 02:00:08;;;;;;;9.82;6.95;;;18.00;80.20;;;;;;5111524;28;20492;-78
2022/07/31 02:02:35;;;;;;;7.22;5.40;;;18.00;80.30;;;;;;5111601;28;20068;-77
2022/07/31 02:05:06;;;;;;;6.47;5.88;;;18.10;80.20;;;;;;5111476;28;20067;-75
2022/07/31 02:07:41;;;;;;;4.88;4.47;;;18.10;80.50;;;;;;5077759;28;20048;-76
2022/07/31 02:10:13;;;;;;;8.15;5.97;;;18.00;80.30;;;;;;5111456;28;20051;-77
2022/07/31 02:12:40;;;;;;;6.43;5.78;;;18.00;80.00;;;;;;5111382;28;20127;-74
2022/07/31 02:15:12;;;;;;;9.45;6.00;;;18.00;80.20;;;;;;5111318;28;20042;-75
2022/07/31 02:17:40;;;;;;;7.05;6.28;;;18.00;80.20;;;;;;5111352;28;20032;-75
2022/07/31 02:20:08;;;;;;;7.80;5.68;;;18.10;80.10;;;;;;5111221;28;20048;-77
2022/07/31 02:22:34;;;;;;;7.00;6.00;;;18.00;80.10;;;;;;5111466;28;20040;-74
2022/07/31 02:25:01;;;;;;;6.45;5.05;;;18.00;80.40;;;;;;5110994;28;20040;-77
2022/07/31 02:27:28;;;;;;;6.93;6.20;;;18.00;80.20;;;;;;5111063;28;20047;-76
2022/07/31 02:29:56;;;;;;;6.30;5.45;;;18.10;79.90;;;;;;5111081;28;20048;-75
2022/07/31 02:32:22;;;;;;;7.72;6.22;;;18.10;80.10;;;;;;5110943;28;20051;-76
2022/07/31 02:34:49;;;;;;;6.90;6.18;;;18.00;80.00;;;;;;5111353;28;20399;-77
2022/07/31 02:37:16;;;;;;;8.25;6.70;;;18.10;79.90;;;;;;5110948;28;20152;-76
2022/07/31 02:39:43;;;;;;;6.78;6.13;;;18.00;79.90;;;;;;5110734;28;20051;-77
2022/07/31 02:42:09;;;;;;;8.35;7.22;;;18.00;80.00;;;;;;5110813;28;20044;-77
2022/07/31 02:44:37;;;;;;;6.63;5.55;;;18.00;80.20;;;;;;5060499;28;20036;-75
2022/07/31 02:47:05;;;;;;;8.35;6.05;;;18.00;79.90;;;;;;5110635;28;20125;-76
2022/07/31 02:49:32;;;;;;;8.55;6.53;;;18.00;79.80;;;;;;5110726;28;20098;-74
2022/07/31 02:51:58;;;;;;;7.47;6.80;;;18.00;79.80;;;;;;5110570;28;20079;-76
2022/07/31 02:54:24;;;;;;;7.53;6.72;;;18.00;80.10;;;;;;5110544;28;20043;-74
2022/07/31 02:56:52;;;;;;;7.43;6.10;;;17.90;80.30;;;;;;5110737;28;20094;-76
2022/07/31 02:59:18;;;;;;;7.20;6.50;;;17.90;80.10;;;;;;5110476;28;20040;-75
2022/07/31 03:01:43;;;;;;;7.88;5.75;;;17.90;80.00;;;;;;5110785;28;20043;-78
2022/07/31 03:04:09;;;;;;;7.93;6.85;;;17.80;80.90;;;;;;5110359;28;20487;-77
2022/07/31 03:06:35;;;;;;;8.48;6.00;;;17.70;80.40;;;;;;5076679;28;20172;-75
2022/07/31 03:09:01;;;;;;;7.18;6.53;;;17.70;80.40;;;;;;5076037;28;20101;-78
2022/07/31 03:11:27;;;;;;;7.55;6.85;;;17.80;80.20;;;;;;5110505;28;20032;-75
2022/07/31 03:13:54;;;;;;;8.32;6.78;;;17.70;80.40;;;;;;5110494;28;20392;-78
2022/07/31 03:16:21;;;;;;;7.53;6.80;;;17.70;80.90;;;;;;5110071;28;20052;-75
2022/07/31 03:18:48;;;;;;;8.52;6.70;;;17.60;81.50;;;;;;5110050;28;20081;-75
2022/07/31 03:21:14;;;;;;;11.00;7.38;;;17.60;81.00;;;;;;5093208;28;20384;-76
2022/07/31 03:23:41;;;;;;;7.78;6.40;;;17.60;81.40;;;;;;5110025;28;20047;-75
2022/07/31 03:26:07;;;;;;;8.60;6.43;;;17.50;81.70;;;;;;5110180;28;20114;-76
2022/07/31 03:28:34;;;;;;;7.93;6.28;;;17.50;81.80;;;;;;5110200;28;20044;-75
2022/07/31 03:31:00;;;;;;;7.70;6.25;;;17.50;81.60;;;;;;5076196;28;20127;-75
2022/07/31 03:33:26;;;;;;;7.80;6.88;;;17.40;81.80;;;;;;5109906;28;20543;-75
2022/07/31 03:35:52;;;;;;;9.25;6.88;;;17.40;82.10;;;;;;5109709;28;20040;-76
2022/07/31 03:38:18;;;;;;;10.95;6.82;;;17.40;82.30;;;;;;5075775;28;20472;-76
2022/07/31 03:40:43;;;;;;;10.50;6.53;;;17.40;82.50;;;;;;5109706;28;20048;-77
2022/07/31 03:43:10;;;;;;;7.20;6.25;;;17.40;82.20;;;;;;5075774;28;20036;-76
2022/07/31 03:45:38;;;;;;;10.10;7.38;;;17.40;82.30;;;;;;5092344;28;20044;-76
2022/07/31 03:48:04;;;;;;;8.77;7.10;;;17.40;82.50;;;;;;5109629;28;20047;-76
2022/07/31 03:50:30;;;;;;;8.73;7.35;;;17.40;81.80;;;;;;5109098;28;20076;-75
2022/07/31 03:52:57;;;;;;;9.88;7.35;;;17.40;81.80;;;;;;5109261;28;20075;-75
2022/07/31 03:55:24;;;;;;;9.43;7.90;;;17.40;82.50;;;;;;5091931;28;20047;-77
2022/07/31 03:57:51;;;;;;;9.48;7.35;;;17.40;82.70;;;;;;5109259;28;20040;-75
2022/07/31 04:00:19;;;;;;;10.95;7.70;;;17.40;82.20;;;;;;5109013;28;20046;-76
2022/07/31 04:02:45;;;;;;;10.18;7.88;;;17.40;82.50;;;;;;5075652;28;20484;-76
2022/07/31 04:05:10;;;;;;;10.75;7.30;;;17.40;82.30;;;;;;5075259;28;20122;-76
2022/07/31 04:07:36;;;;;;;12.95;7.70;;;17.40;83.00;;;;;;5109235;28;20036;-75
2022/07/31 04:10:02;;;;;;;9.23;7.80;;;17.40;83.00;;;;;;5109414;28;20112;-76
2022/07/31 04:12:28;;;;;;;8.93;8.00;;;17.40;83.00;;;;;;5075239;28;20047;-77
2022/07/31 04:14:54;;;;;;;9.98;7.13;;;17.50;83.10;;;;;;5075351;28;20395;-74
2022/07/31 04:17:19;;;;;;;9.02;7.97;;;17.50;83.00;;;;;;5109013;28;20162;-76
2022/07/31 04:19:45;;;;;;;9.32;7.30;;;17.50;83.20;;;;;;5108175;28;20055;-77
2022/07/31 04:22:11;;;;;;;8.10;6.80;;;17.50;83.00;;;;;;5109221;28;20047;-76
2022/07/31 04:24:36;;;;;;;8.82;7.80;;;17.50;82.80;;;;;;5108965;28;20491;-77
2022/07/31 04:27:03;;;;;;;9.57;7.75;;;17.50;83.70;;;;;;5058357;28;20047;-74
2022/07/31 04:29:29;;;;;;;8.52;7.72;;;17.50;83.50;;;;;;5109004;28;20052;-76
2022/07/31 04:31:55;;;;;;;9.40;7.30;;;17.50;83.40;;;;;;5074925;28;20264;-77
2022/07/31 04:34:21;;;;;;;8.90;7.82;;;17.50;83.80;;;;;;5108770;28;20508;-78
2022/07/31 04:36:47;;;;;;;8.50;6.75;;;17.60;83.70;;;;;;5074973;28;20066;-78
2022/07/31 04:39:12;;;;;;;7.28;5.85;;;17.50;83.90;;;;;;5074904;28;20445;-75
2022/07/31 04:41:38;;;;;;;11.25;7.90;;;17.60;83.70;;;;;;5075112;28;20043;-76
2022/07/31 04:44:04;;;;;;;10.43;8.10;;;17.60;84.00;;;;;;5075387;28;20040;-73
2022/07/31 04:46:30;;;;;;;8.95;8.00;;;17.60;83.30;;;;;;5108570;28;20062;-77
2022/07/31 04:48:55;;;;;;;10.02;8.05;;;17.70;83.80;;;;;;5108843;28;20079;-77
2022/07/31 04:51:22;;;;;;;9.10;7.43;;;17.70;83.80;;;;;;5091729;28;20050;-74
2022/07/31 04:53:49;;;;;;;7.13;6.45;;;17.80;83.50;;;;;;5108611;28;20050;-75
2022/07/31 04:56:32;;;;;;;8.70;7.13;;;17.80;83.30;;;;;;5108555;28;20044;-76
2022/07/31 04:58:59;;;;;;;10.02;6.35;;;17.80;83.20;;;;;;5108552;28;20085;-76
2022/07/31 05:01:25;;;;;;;9.15;7.97;;;17.90;83.30;;;;;;5108579;28;20071;-76
2022/07/31 05:03:51;;;;;;;8.27;7.43;;;17.90;83.60;;;;;;5108819;28;20079;-76
2022/07/31 05:06:17;;;;;;;8.57;7.72;;;17.90;83.50;;;;;;5075172;28;20133;-76
2022/07/31 05:08:43;;;;;;;8.38;7.50;;;18.00;83.60;;;;;;5108811;28;20399;-76
2022/07/31 05:11:23;;;;;;;8.30;7.55;;;18.00;83.70;;;;;;5074675;28;20047;-76
2022/07/31 05:13:51;;;;;;;9.50;7.20;;;18.00;83.40;;;;;;5108435;28;20047;-75
2022/07/31 05:16:18;;;;;;;10.68;7.63;;;18.00;83.70;;;;;;5108345;28;20044;-76
2022/07/31 05:18:44;;;;;;;9.95;7.82;;;18.10;84.00;;;;;;5108398;28;20040;-76
2022/07/31 05:21:11;;;;;;;9.68;8.07;;;18.10;83.30;;;;;;5108378;28;20096;-75
2022/07/31 05:23:39;;;;;;;10.40;8.15;;;18.10;83.80;;;;;;5108375;28;20047;-76
2022/07/31 05:26:05;;;;;;;12.00;8.15;;;18.20;83.40;;;;;;5108238;28;20040;-75
2022/07/31 05:28:31;;;;;;;9.38;7.10;;;18.20;83.40;;;;;;5108270;28;20044;-76
2022/07/31 05:30:56;;;;;;;8.20;7.20;;;18.30;82.90;;;;;;5108832;28;20052;-78
2022/07/31 05:33:22;;;;;;;9.88;8.00;;;18.40;83.40;;;;;;5112200;28;20044;-76
2022/07/31 05:35:48;;;;;;;9.65;7.90;;;18.40;82.80;;;;;;5078392;28;20040;-75
2022/07/31 05:38:13;;;;;;;12.15;8.93;;;18.40;83.00;;;;;;5095023;28;20568;-76
2022/07/31 05:40:39;;;;;;;9.45;7.95;;;18.40;82.60;;;;;;5078070;28;20044;-75
2022/07/31 05:43:05;;;;;;;9.35;7.13;;;18.50;82.30;;;;;;5112179;28;20144;-74
2022/07/31 05:45:31;;;;;;;8.52;7.55;;;18.50;82.60;;;;;;5112048;28;20090;-75
2022/07/31 05:47:56;;;;;;;9.68;7.78;;;18.50;82.40;;;;;;5111857;28;20111;-76
2022/07/31 05:50:22;;;;;;;10.77;7.95;;;18.60;82.60;;;;;;5111845;28;20448;-75
2022/07/31 05:52:51;;;;;;;8.85;8.02;;;18.60;82.40;;;;;;5112116;28;20109;-75
2022/07/31 05:55:16;;;;;;;9.00;8.10;;;18.50;83.00;;;;;;5111922;28;20097;-75
2022/07/31 05:57:42;;;;;;;9.85;8.32;;;18.60;82.70;;;;;;5111652;28;20475;-74
2022/07/31 06:00:08;;;;;;;10.93;8.02;;;18.60;82.40;;;;;;5111594;28;20044;-74
2022/07/31 06:02:34;;;;;;;11.77;9.40;;;18.70;82.30;;;;;;5111875;28;20127;-75
2022/07/31 06:05:01;;;;;;;9.20;7.32;;;18.70;82.40;;;;;;5111711;28;20032;-76
2022/07/31 06:07:27;;;;;;;9.57;8.60;;;18.70;82.50;;;;;;5094515;28;20079;-74
2022/07/31 06:09:53;;;;;;;10.15;8.40;;;18.70;82.80;;;;;;5111522;28;20087;-75
2022/07/31 06:12:18;;;;;;;11.07;9.48;;;18.80;82.80;;;;;;5111674;28;20085;-75
2022/07/31 06:14:44;;;;;;;10.52;9.45;;;18.80;82.50;;;;;;5111257;28;20488;-76
2022/07/31 06:17:10;;;;;;;9.27;8.40;;;18.90;82.10;;;;;;5111310;28;20044;-75
2022/07/31 06:19:36;;;;;;;10.30;9.30;;;18.90;82.40;;;;;;5077536;28;20040;-75
2022/07/31 06:22:02;;;;;;;10.18;9.15;;;18.90;81.90;;;;;;5111192;28;20043;-74
2022/07/31 06:24:28;;;;;;;11.13;9.43;;;19.00;82.20;;;;;;5077361;28;20412;-75
2022/07/31 06:27:01;;;;;;;13.05;10.00;;;19.00;82.20;;;;;;5110997;28;20040;-75
2022/07/31 06:29:27;;;;;;;12.65;9.60;;;19.00;82.40;;;;;;5094418;28;20478;-75
2022/07/31 06:31:53;;;;;;;9.60;8.40;;;19.00;82.30;;;;;;5077042;28;20060;-75
2022/07/31 06:34:19;;;;;;;13.45;9.07;;;19.10;82.30;;;;;;5110968;28;20048;-76
2022/07/31 06:36:45;;;;;;;11.30;9.57;;;19.20;82.10;;;;;;5110856;28;20088;-75
2022/07/31 06:39:10;;;;;;;11.07;9.02;;;19.20;82.00;;;;;;5110851;28;20087;-73
2022/07/31 06:41:46;;;;;;;10.98;9.98;;;19.20;82.20;;;;;;5077015;28;20040;-75
2022/07/31 06:44:16;;;;;;;10.88;9.80;;;19.30;82.20;;;;;;5076288;28;20487;-75
2022/07/31 06:46:42;;;;;;;9.93;8.70;;;19.30;82.10;;;;;;5110919;28;20060;-76
2022/07/31 06:49:09;;;;;;;14.70;10.90;;;19.40;81.80;;;;;;5093752;28;20051;-75
2022/07/31 06:51:35;;;;;;;13.40;10.80;;;19.40;82.50;;;;;;5093920;28;20442;-75
2022/07/31 06:54:02;;;;;;;13.45;10.85;;;19.40;82.90;;;;;;5093868;28;20043;-75
2022/07/31 06:56:29;;;;;;;13.88;11.15;;;19.50;83.00;;;;;;5076654;28;20055;-74
2022/07/31 06:58:54;;;;;;;12.57;11.38;;;19.50;82.90;;;;;;5093508;28;20104;-75
2022/07/31 07:01:20;;;;;;;15.20;12.35;;;19.50;83.00;;;;;;5093692;28;20040;-76
2022/07/31 07:03:46;;;;;;;13.80;11.95;;;19.60;83.00;;;;;;5093444;28;20101;-76
2022/07/31 07:06:12;;;;;;;14.43;11.60;;;19.70;83.00;;;;;;5093269;28;20042;-76
2022/07/31 07:08:38;;;;;;;15.15;12.02;;;19.60;83.70;;;;;;5076661;28;20044;-76
2022/07/31 07:11:04;;;;;;;16.33;13.68;;;19.60;83.20;;;;;;5076447;28;20093;-77
2022/07/31 07:13:29;;;;;;;14.50;13.10;;;19.70;83.50;;;;;;5093246;28;20400;-75
2022/07/31 07:15:55;;;;;;;14.80;13.32;;;19.70;84.10;;;;;;5076225;28;20050;-76
2022/07/31 07:18:21;;;;;;;16.17;14.50;;;19.70;84.30;;;;;;5093100;28;20040;-76
2022/07/31 07:20:51;;;;;;;15.70;13.77;;;19.80;83.60;;;;;;5092981;28;20051;-75
2022/07/31 07:23:17;;;;;;;15.52;12.98;;;19.80;84.30;;;;;;5092960;28;20032;-76
2022/07/31 07:25:43;;;;;;;15.85;14.13;;;19.90;84.50;;;;;;5092960;28;20081;-77
2022/07/31 07:28:09;;;;;;;14.45;13.02;;;19.90;84.70;;;;;;5076112;28;20079;-75
2022/07/31 07:30:35;;;;;;;16.08;14.38;;;20.00;84.50;;;;;;5095089;28;20051;-75
2022/07/31 07:33:01;;;;;;;16.45;14.75;;;20.00;85.20;;;;;;5079516;28;20407;-75
2022/07/31 07:35:27;;;;;;;16.10;14.40;;;20.00;85.40;;;;;;5113134;28;20051;-76
2022/07/31 07:37:53;;;;;;;15.80;14.23;;;20.10;85.90;;;;;;5096134;28;20047;-76
2022/07/31 07:40:20;;;;;;;17.33;14.40;;;20.10;86.80;;;;;;5096045;28;20046;-76
2022/07/31 07:42:45;;;;;;;18.80;13.90;;;20.10;85.80;;;;;;5113053;28;20050;-77
2022/07/31 07:45:12;;;;;;;16.67;12.70;;;20.10;86.00;;;;;;5096040;28;20122;-76
2022/07/31 07:47:38;;;;;;;14.60;12.25;;;20.20;87.20;;;;;;5113038;28;20032;-76
2022/07/31 07:50:08;;;;;;;17.88;12.27;;;20.20;87.50;;;;;;5112938;28;20204;-75
2022/07/31 07:52:36;;;;;;;16.80;11.88;;;20.20;87.10;;;;;;5112860;28;20073;-75
2022/07/31 07:55:03;;;;;;;19.05;12.60;;;20.20;87.60;;;;;;5094765;28;20048;-75
2022/07/31 07:57:29;;;;;;;18.20;11.93;;;20.20;88.20;;;;;;5112845;28;20118;-74
2022/07/31 07:59:57;;;;;;;19.75;12.25;;;20.20;87.80;;;;;;5095650;28;20139;-74
2022/07/31 08:02:23;;;;;;;19.75;12.43;;;20.20;88.50;;;;;;5095767;28;20027;-76
2022/07/31 08:04:49;;;;;;;20.45;12.40;;;20.10;89.00;;;;;;5062065;28;20071;-74
2022/07/31 08:07:14;;;;;;;18.08;13.30;;;20.10;89.20;;;;;;5062504;28;20041;-73
2022/07/31 08:09:40;;;;;;;19.70;14.32;;;20.10;88.80;;;;;;5095884;28;20046;-76
2022/07/31 08:12:05;;;;;;;21.83;14.02;;;20.10;89.10;;;;;;5095511;28;20108;-75
2022/07/31 08:14:31;;;;;;;19.10;13.70;;;20.00;89.20;;;;;;5095829;28;20044;-75
2022/07/31 08:16:57;;;;;;;26.77;15.75;;;20.00;90.70;;;;;;5095355;28;20130;-75
2022/07/31 08:19:23;;;;;;;26.60;16.50;;;19.90;90.30;;;;;;5061967;28;20123;-74
2022/07/31 08:21:48;;;;;;;20.55;14.80;;;19.90;91.20;;;;;;5095705;28;20052;-75
2022/07/31 08:24:16;;;;;;;18.60;15.93;;;19.90;90.50;;;;;;5112373;28;20043;-75
2022/07/31 08:29:27;;;;;;;;;;;19.80;90.70;;;;;;5113033;28;20130;-73
2022/07/31 08:31:52;;;;;;;19.80;14.55;;;19.80;92.20;;;;;;5095208;28;19919;-73
2022/07/31 08:34:19;;;;;;;26.70;18.10;;;19.70;91.50;;;;;;5078495;28;20479;-77
2022/07/31 08:36:45;;;;;;;30.42;17.27;;;19.70;92.40;;;;;;5112142;28;20051;-76
2022/07/31 08:39:10;;;;;;;28.67;19.00;;;19.70;92.00;;;;;;5078552;28;20040;-73
2022/07/31 08:41:38;;;;;;;24.52;17.63;;;19.70;92.30;;;;;;5095219;28;20039;-76
2022/07/31 08:44:08;;;;;;;25.35;17.23;;;19.70;91.60;;;;;;5112476;28;20099;-77
2022/07/31 08:46:38;;;;;;;26.92;16.38;;;19.90;91.50;;;;;;5094988;28;20044;-75
2022/07/31 08:49:05;;;;;;;29.85;19.60;;;19.80;92.70;;;;;;5112118;28;20122;-74
2022/07/31 08:51:35;;;;;;;26.92;17.95;;;19.80;93.20;;;;;;5112379;28;20051;-74
2022/07/31 08:54:07;;;;;;;27.25;18.20;;;19.90;92.70;;;;;;5095120;28;20051;-75
2022/07/31 08:56:37;;;;;;;25.08;19.15;;;19.90;93.30;;;;;;5112097;28;20051;-76
2022/07/31 08:59:06;;;;;;;23.67;16.30;;;19.80;93.00;;;;;;5112154;28;20122;-76
2022/07/31 09:01:34;;;;;;;27.63;19.35;;;19.80;93.00;;;;;;5112281;28;20031;-76
2022/07/31 09:04:00;;;;;;;21.55;17.50;;;19.70;93.60;;;;;;5111950;28;20127;-76
2022/07/31 09:06:26;;;;;;;22.23;16.90;;;19.70;93.50;;;;;;5113516;28;20043;-78
2022/07/31 09:08:55;;;;;;;25.55;18.73;;;19.70;93.50;;;;;;5082196;28;20042;-75
2022/07/31 09:11:21;;;;;;;24.55;18.42;;;19.60;93.40;;;;;;5082060;28;20043;-76
2022/07/31 09:14:01;;;;;;;24.42;19.00;;;19.60;94.00;;;;;;5115949;28;20077;-76
2022/07/31 09:16:27;;;;;;;26.05;19.23;;;19.60;94.10;;;;;;5115873;28;20043;-74
2022/07/31 09:18:55;;;;;;;28.38;20.88;;;19.60;94.00;;;;;;5116076;28;20430;-75
2022/07/31 09:21:21;;;;;;;31.75;20.73;;;19.50;94.40;;;;;;5081877;28;20042;-74
2022/07/31 09:23:47;;;;;;;25.80;19.40;;;19.50;94.80;;;;;;5115792;28;20031;-74
2022/07/31 09:26:13;;;;;;;28.58;20.52;;;19.50;94.90;;;;;;5098564;28;20047;-75
2022/07/31 09:28:45;;;;;;;26.55;19.98;;;19.50;94.60;;;;;;5115701;28;20031;-76
2022/07/31 09:31:12;;;;;;;25.60;19.13;;;19.50;94.70;;;;;;5115602;28;20135;-76
2022/07/31 09:33:41;;;;;;;27.08;19.60;;;19.50;94.40;;;;;;5081632;28;20518;-76
2022/07/31 09:36:07;;;;;;;24.40;18.52;;;19.40;94.10;;;;;;5115499;28;20035;-77
2022/07/31 09:38:35;;;;;;;28.02;18.80;;;19.50;94.20;;;;;;5081517;28;20047;-76
2022/07/31 09:41:09;;;;;;;25.65;18.38;;;19.50;93.90;;;;;;5115764;28;20425;-75
2022/07/31 09:43:35;;;;;;;25.58;18.73;;;19.60;94.30;;;;;;5098628;28;20054;-73
2022/07/31 09:46:03;;;;;;;26.17;19.00;;;19.60;94.70;;;;;;5081401;28;20483;-78
2022/07/31 09:48:29;;;;;;;24.10;17.90;;;19.50;94.60;;;;;;5115637;28;20387;-75
2022/07/31 09:51:00;;;;;;;21.02;16.08;;;19.50;94.80;;;;;;5115563;28;20368;-74
2022/07/31 09:53:37;;;;;;;15.82;13.57;;;19.60;94.80;;;;;;5115240;28;20047;-76
2022/07/31 09:56:03;;;;;;;12.95;11.55;;;19.50;94.40;;;;;;5081289;28;20043;-76
2022/07/31 09:58:28;;;;;;;16.88;14.05;;;19.50;94.10;;;;;;5081539;28;20052;-73
2022/07/31 10:00:55;;;;;;;21.40;15.57;;;19.50;94.70;;;;;;5081070;28;20399;-74
2022/07/31 10:03:24;;;;;;;15.70;12.45;;;19.40;95.20;;;;;;5098039;28;20092;-75
2022/07/31 10:05:50;;;;;;;16.33;11.38;;;19.40;94.90;;;;;;5114817;28;20491;-76
2022/07/31 10:08:16;;;;;;;14.27;12.20;;;19.40;94.70;;;;;;5081500;28;20044;-75
2022/07/31 10:10:43;;;;;;;18.10;12.45;;;19.40;95.00;;;;;;5097897;28;20540;-76
2022/07/31 10:13:14;;;;;;;12.25;10.90;;;19.40;94.90;;;;;;5115099;28;20054;-77
2022/07/31 10:15:41;;;;;;;14.07;12.02;;;19.40;95.10;;;;;;5080894;28;20050;-76
2022/07/31 10:18:08;;;;;;;13.50;11.57;;;19.40;95.20;;;;;;5113613;28;20506;-76
2022/07/31 10:20:34;;;;;;;17.10;13.48;;;19.30;95.20;;;;;;5114601;28;20047;-74
2022/07/31 10:23:21;;;;;;;16.52;13.63;;;19.30;95.40;;;;;;5080900;28;20031;-75
2022/07/31 10:25:57;;;;;;;18.45;15.27;;;19.30;95.30;;;;;;5097924;28;20126;-76
2022/07/31 10:28:23;;;;;;;20.23;16.27;;;19.30;95.30;;;;;;5114883;28;20112;-75
2022/07/31 10:30:49;;;;;;;23.23;17.48;;;19.40;95.40;;;;;;5114532;28;20395;-73
2022/07/31 10:33:16;;;;;;;22.48;17.88;;;19.40;95.10;;;;;;5080634;28;20047;-74
2022/07/31 10:35:56;;;;;;;24.23;19.77;;;19.40;95.20;;;;;;5080441;28;20609;-75
2022/07/31 10:38:30;;;;;;;24.42;19.55;;;19.30;95.60;;;;;;5097405;28;20044;-76
2022/07/31 10:41:11;;;;;;;23.98;19.10;;;19.40;95.40;;;;;;5114376;28;20067;-76
2022/07/31 10:43:51;;;;;;;24.98;20.33;;;19.40;95.60;;;;;;5097300;28;20054;-75
2022/07/31 10:46:27;;;;;;;27.75;21.27;;;19.30;95.70;;;;;;5080525;28;20357;-73
2022/07/31 10:48:53;;;;;;;28.08;21.15;;;19.30;95.60;;;;;;5063934;28;20039;-75
2022/07/31 10:51:21;;;;;;;24.45;19.48;;;19.30;96.10;;;;;;5097160;28;20403;-74
2022/07/31 10:54:10;;;;;;;29.15;21.80;;;19.30;95.50;;;;;;5080186;28;20040;-73
2022/07/31 10:56:44;;;;;;;24.05;19.65;;;19.30;95.90;;;;;;5114223;28;20047;-75
2022/07/31 10:59:11;;;;;;;23.02;19.10;;;19.30;95.60;;;;;;5114150;28;20487;-75
2022/07/31 11:01:50;;;;;;;27.45;20.65;;;19.30;95.80;;;;;;5096959;28;20697;-74
2022/07/31 11:04:33;;;;;;;25.90;20.40;;;19.20;95.60;;;;;;5080030;28;20079;-75
2022/07/31 11:06:58;;;;;;;17.90;14.82;;;19.20;96.10;;;;;;5113763;28;20043;-76
2022/07/31 11:09:27;;;;;;;14.85;12.80;;;19.20;95.90;;;;;;5114045;28;20038;-73
2022/07/31 11:11:54;;;;;;;18.13;14.55;;;19.10;95.50;;;;;;5080142;28;20047;-75
2022/07/31 11:14:49;;;;;;;20.02;15.00;;;19.10;95.80;;;;;;5113952;28;20110;-77
2022/07/31 11:17:16;;;;;;;23.77;19.67;;;19.10;96.10;;;;;;5075541;28;20048;-75
2022/07/31 11:19:42;;;;;;;24.60;19.67;;;19.10;96.00;;;;;;5113489;28;20048;-75
2022/07/31 11:22:14;;;;;;;23.48;19.48;;;19.10;96.50;;;;;;5079555;28;20039;-75
2022/07/31 11:24:40;;;;;;;26.55;19.15;;;19.10;96.40;;;;;;5113606;28;20060;-74
2022/07/31 11:27:06;;;;;;;26.60;18.83;;;19.10;96.40;;;;;;5096230;28;20519;-78
2022/07/31 11:29:37;;;;;;;24.75;18.90;;;19.10;96.50;;;;;;5096193;28;20043;-75
2022/07/31 11:32:13;;;;;;;23.88;18.27;;;19.00;96.70;;;;;;5113261;28;20139;-75
2022/07/31 11:34:52;;;;;;;23.42;16.80;;;19.00;96.60;;;;;;5113317;28;20047;-77
2022/07/31 11:37:24;;;;;;;21.60;16.60;;;19.00;96.40;;;;;;5113475;28;20123;-76
2022/07/31 11:39:51;;;;;;;25.23;18.77;;;19.10;96.30;;;;;;5113089;28;20111;-76
2022/07/31 11:42:18;;;;;;;24.90;16.95;;;19.10;95.90;;;;;;5113175;28;20040;-77
2022/07/31 11:44:44;;;;;;;25.42;18.65;;;19.10;96.00;;;;;;5113024;28;20039;-74
2022/07/31 11:47:10;;;;;;;16.95;13.30;;;19.10;95.90;;;;;;5096104;28;20046;-78
2022/07/31 11:49:36;;;;;;;12.38;9.15;;;19.10;96.40;;;;;;5079075;28;20050;-74
2022/07/31 11:52:06;;;;;;;12.65;9.30;;;19.10;95.90;;;;;;5112903;28;20483;-77
2022/07/31 11:54:32;;;;;;;11.07;8.82;;;19.20;95.60;;;;;;5095912;28;20047;-74
2022/07/31 11:56:59;;;;;;;12.70;9.50;;;19.40;95.50;;;;;;5095785;28;20047;-76
2022/07/31 11:59:33;;;;;;;8.63;7.72;;;19.40;95.60;;;;;;5112722;28;20039;-75
2022/07/31 12:02:07;;;;;;;5.10;4.53;;;19.50;95.50;;;;;;5112765;28;20483;-76
2022/07/31 12:04:37;;;;;;;3.95;3.55;;;19.50;95.60;;;;;;5112764;28;20040;-77
2022/07/31 12:07:07;;;;;;;4.10;3.40;;;19.60;95.50;;;;;;5078613;28;21083;-76
2022/07/31 12:09:34;;;;;;;3.03;2.72;;;19.60;95.60;;;;;;5095947;28;20031;-74
2022/07/31 12:12:04;;;;;;;3.67;3.38;;;19.70;95.50;;;;;;5078992;28;20039;-74
2022/07/31 12:14:32;;;;;;;3.15;2.85;;;19.80;95.40;;;;;;5078953;28;20434;-76
2022/07/31 12:16:58;;;;;;;4.30;3.30;;;19.90;95.40;;;;;;5095855;28;20100;-73
2022/07/31 12:19:28;;;;;;;4.30;3.90;;;19.90;95.50;;;;;;5112381;28;20126;-76
2022/07/31 12:21:54;;;;;;;3.75;3.42;;;19.90;95.10;;;;;;5078539;28;20040;-76
2022/07/31 12:24:19;;;;;;;5.30;4.80;;;20.00;95.00;;;;;;5112458;28;20096;-76
2022/07/31 12:26:54;;;;;;;4.75;4.05;;;20.00;94.90;;;;;;5112307;28;20066;-78
2022/07/31 12:29:34;;;;;;;8.73;5.18;;;20.10;94.50;;;;;;5078521;28;20513;-75
2022/07/31 12:32:06;;;;;;;4.53;4.03;;;20.00;94.30;;;;;;5108942;28;20067;-74
2022/07/31 12:34:40;;;;;;;5.68;5.10;;;20.00;94.20;;;;;;5108875;28;20058;-76
2022/07/31 12:37:18;;;;;;;7.80;5.78;;;20.00;94.10;;;;;;5075105;28;20083;-75
2022/07/31 12:39:50;;;;;;;7.45;5.35;;;19.90;94.10;;;;;;5075253;28;20040;-74
2022/07/31 12:42:24;;;;;;;7.30;5.00;;;19.90;94.00;;;;;;5108216;28;20122;-79
2022/07/31 12:44:55;;;;;;;;;;;20.00;94.10;;;;;;5092442;28;20407;-76